Time;durP1;ratioP1;P1;durP2;ratioP2;P2;SDS_P1;SDS_P2;PMS_P1;PMS_P2;Temp;Humidity;BMP_temperature;BMP_pressure;BME280_temperature;BME280_humidity;BME280_pressure;Samples;Min_cycle;Max_cycle;Signal;HPM_P1;HPM_P2
2021/04/16 00:00:35;;;;;;;7.75;2.65;;;9.70;50.60;;;;;;5050790;28;20104;-69
2021/04/16 00:03:02;;;;;;;8.52;2.80;;;9.70;50.40;;;;;;5050913;28;20032;-69
2021/04/16 00:05:27;;;;;;;7.07;2.63;;;9.70;50.30;;;;;;5050707;28;20507;-69
2021/04/16 00:07:53;;;;;;;8.40;2.80;;;9.70;50.40;;;;;;5050202;28;20057;-69
2021/04/16 00:10:34;;;;;;;7.43;2.72;;;9.60;50.30;;;;;;5052744;28;20397;-70
2021/04/16 00:13:00;;;;;;;6.60;2.38;;;9.60;50.90;;;;;;5054486;28;20035;-69
2021/04/16 00:15:27;;;;;;;6.05;2.70;;;9.60;50.80;;;;;;5054399;28;20094;-70
2021/04/16 00:17:53;;;;;;;7.10;2.90;;;9.60;50.70;;;;;;5053892;28;20447;-70
2021/04/16 00:20:21;;;;;;;8.77;3.00;;;9.50;50.50;;;;;;5054373;28;20043;-70
2021/04/16 00:22:47;;;;;;;7.65;2.60;;;9.50;50.80;;;;;;5054210;28;20109;-70
2021/04/16 00:25:15;;;;;;;8.82;2.90;;;9.50;50.70;;;;;;5054154;28;20056;-69
2021/04/16 00:27:41;;;;;;;8.77;2.85;;;9.50;50.80;;;;;;5054366;28;20033;-70
2021/04/16 00:30:08;;;;;;;7.88;2.40;;;9.50;51.00;;;;;;5053931;28;20369;-69
2021/04/16 00:32:35;;;;;;;8.00;2.70;;;9.50;50.70;;;;;;5054000;28;20025;-69
2021/04/16 00:35:02;;;;;;;8.68;2.58;;;9.50;50.80;;;;;;5051855;28;20041;-69
2021/04/16 00:37:27;;;;;;;7.78;2.70;;;9.50;50.80;;;;;;5054241;28;20488;-70
2021/04/16 00:39:53;;;;;;;8.77;2.80;;;9.50;50.60;;;;;;5054017;28;20032;-70
2021/04/16 00:42:19;;;;;;;9.55;3.00;;;9.50;50.70;;;;;;5053988;28;20401;-69
2021/04/16 00:44:45;;;;;;;9.77;2.75;;;9.40;50.80;;;;;;5053610;28;20104;-70
2021/04/16 00:47:15;;;;;;;6.90;2.53;;;9.40;50.80;;;;;;5053581;28;20021;-70
2021/04/16 00:49:44;;;;;;;8.80;2.83;;;9.40;50.90;;;;;;5053782;28;20473;-69
2021/04/16 00:52:11;;;;;;;6.68;2.78;;;9.40;50.80;;;;;;5053777;28;20033;-70
2021/04/16 00:54:41;;;;;;;8.48;2.80;;;9.30;51.10;;;;;;5052654;28;20040;-70
2021/04/16 00:57:10;;;;;;;9.35;2.65;;;9.30;51.10;;;;;;5053243;28;20056;-70
2021/04/16 00:59:39;;;;;;;6.20;2.40;;;9.30;51.20;;;;;;5053826;28;20531;-70
2021/04/16 01:02:06;;;;;;;11.20;2.80;;;9.30;50.90;;;;;;5053123;28;20108;-70
2021/04/16 01:04:32;;;;;;;7.90;2.90;;;9.30;51.10;;;;;;5053564;28;20092;-70
2021/04/16 01:07:01;;;;;;;10.43;2.53;;;9.20;51.10;;;;;;5053668;28;20037;-70
2021/04/16 01:09:27;;;;;;;10.25;2.85;;;9.20;51.20;;;;;;5053120;28;20032;-70
2021/04/16 01:11:52;;;;;;;8.00;2.55;;;9.20;51.40;;;;;;5053421;28;20040;-70
2021/04/16 01:14:19;;;;;;;7.93;2.72;;;9.20;51.40;;;;;;5053643;28;20400;-70
2021/04/16 01:16:46;;;;;;;8.77;2.85;;;9.10;51.70;;;;;;5052466;28;20044;-70
2021/04/16 01:19:32;;;;;;;8.57;2.65;;;9.10;51.80;;;;;;5051992;28;20021;-70
2021/04/16 01:22:06;;;;;;;8.05;2.83;;;9.10;51.60;;;;;;5051076;28;20025;-70
2021/04/16 01:24:33;;;;;;;6.50;2.60;;;9.10;51.70;;;;;;5053389;28;20021;-70
2021/04/16 01:27:02;;;;;;;7.65;2.45;;;9.10;52.00;;;;;;5051922;28;20075;-70
2021/04/16 01:29:28;;;;;;;11.98;2.92;;;9.10;51.90;;;;;;5053304;28;20497;-70
2021/04/16 01:31:54;;;;;;;7.97;2.70;;;9.10;51.90;;;;;;5052633;28;20036;-70
2021/04/16 01:34:23;;;;;;;10.80;2.70;;;9.10;51.90;;;;;;5053085;28;20032;-70
2021/04/16 01:36:51;;;;;;;7.63;2.85;;;9.10;52.20;;;;;;5050692;28;20412;-70
2021/04/16 01:39:21;;;;;;;6.68;2.60;;;9.10;52.10;;;;;;5053090;28;20017;-70
2021/04/16 01:41:47;;;;;;;7.25;2.80;;;9.10;51.80;;;;;;5052659;28;20029;-69
2021/04/16 01:44:17;;;;;;;10.30;3.30;;;9.10;51.80;;;;;;5053109;28;20013;-70
2021/04/16 01:47:01;;;;;;;9.40;2.97;;;9.00;51.90;;;;;;5052235;28;21147;-70
2021/04/16 01:49:36;;;;;;;6.95;2.55;;;9.10;52.10;;;;;;5041019;28;20155;-70
2021/04/16 01:52:04;;;;;;;9.50;2.90;;;9.10;52.20;;;;;;5052616;28;20036;-70
2021/04/16 01:54:42;;;;;;;12.25;3.05;;;9.00;52.10;;;;;;5052995;28;20048;-70
2021/04/16 01:57:11;;;;;;;8.27;2.97;;;9.00;52.20;;;;;;5046498;28;20021;-70
2021/04/16 01:59:39;;;;;;;7.25;2.60;;;8.90;52.20;;;;;;5052662;28;20406;-69
2021/04/16 02:02:07;;;;;;;9.23;3.03;;;8.90;52.30;;;;;;5051994;28;20032;-69
2021/04/16 02:04:33;;;;;;;7.68;2.80;;;8.90;52.50;;;;;;5052301;28;20028;-70
2021/04/16 02:06:59;;;;;;;8.45;2.90;;;8.90;52.40;;;;;;5041414;28;20030;-69
2021/04/16 02:09:28;;;;;;;9.60;2.85;;;8.80;52.20;;;;;;5051981;28;20512;-70
2021/04/16 02:11:54;;;;;;;8.48;2.67;;;8.80;53.10;;;;;;5048473;28;20400;-70
2021/04/16 02:14:23;;;;;;;10.30;2.85;;;8.80;52.50;;;;;;5039386;28;20025;-70
2021/04/16 02:16:55;;;;;;;10.98;2.80;;;8.80;52.60;;;;;;5042899;28;20041;-69
2021/04/16 02:19:20;;;;;;;9.40;2.90;;;8.80;52.70;;;;;;5031578;28;20104;-70
2021/04/16 02:21:46;;;;;;;6.78;2.65;;;8.80;52.80;;;;;;5032362;28;20120;-70
2021/04/16 02:24:12;;;;;;;9.82;2.92;;;8.70;53.00;;;;;;5048715;28;20017;-69
2021/04/16 02:26:39;;;;;;;12.35;3.00;;;8.70;53.10;;;;;;5043059;28;20037;-70
2021/04/16 02:29:06;;;;;;;10.38;3.03;;;8.70;53.10;;;;;;5032604;28;20027;-69
2021/04/16 02:31:32;;;;;;;7.88;3.10;;;8.60;53.30;;;;;;5052151;28;20029;-70
2021/04/16 02:33:58;;;;;;;8.70;2.95;;;8.70;53.50;;;;;;5050651;28;20021;-70
2021/04/16 02:36:24;;;;;;;10.55;2.90;;;8.70;53.20;;;;;;5041965;28;20021;-69
2021/04/16 02:38:54;;;;;;;6.95;2.88;;;8.70;53.20;;;;;;5050601;28;20059;-70
2021/04/16 02:41:21;;;;;;;8.25;3.08;;;8.70;53.50;;;;;;5051497;28;20424;-70
2021/04/16 02:43:47;;;;;;;6.05;2.80;;;8.70;53.40;;;;;;5042264;28;20029;-70
2021/04/16 02:46:14;;;;;;;7.68;2.95;;;8.70;53.40;;;;;;5031554;28;20044;-69
2021/04/16 02:48:39;;;;;;;11.48;3.20;;;8.70;53.40;;;;;;5031915;28;20030;-69
2021/04/16 02:51:05;;;;;;;10.25;3.25;;;8.60;53.40;;;;;;5045322;28;20082;-70
2021/04/16 02:53:31;;;;;;;11.00;3.45;;;8.70;53.30;;;;;;5051722;28;20100;-70
2021/04/16 02:55:57;;;;;;;11.60;3.47;;;8.60;54.40;;;;;;5051243;28;20512;-70
2021/04/16 02:58:22;;;;;;;11.23;3.10;;;8.60;53.70;;;;;;5036182;28;20082;-70
2021/04/16 03:00:48;;;;;;;7.78;3.00;;;8.60;53.60;;;;;;5051520;28;20078;-70
2021/04/16 03:03:14;;;;;;;6.95;3.15;;;8.60;53.80;;;;;;5051219;28;20049;-70
2021/04/16 03:05:39;;;;;;;8.23;3.20;;;8.60;53.70;;;;;;5051461;28;20029;-70
2021/04/16 03:08:05;;;;;;;10.57;3.10;;;8.60;53.80;;;;;;5051252;28;20486;-70
2021/04/16 03:10:33;;;;;;;10.65;3.22;;;8.60;53.50;;;;;;5051190;28;20060;-70
2021/04/16 03:12:59;;;;;;;8.98;3.20;;;8.50;53.40;;;;;;5051147;28;20100;-70
2021/04/16 03:15:25;;;;;;;7.30;3.00;;;8.50;53.70;;;;;;5050900;28;20056;-70
2021/04/16 03:17:50;;;;;;;7.95;3.20;;;8.50;53.50;;;;;;5042362;28;20505;-70
2021/04/16 03:20:18;;;;;;;11.52;3.33;;;8.50;53.70;;;;;;5040499;28;20505;-69
2021/04/16 03:22:44;;;;;;;9.38;3.35;;;8.60;53.70;;;;;;5038319;28;20048;-70
2021/04/16 03:25:12;;;;;;;8.82;3.08;;;8.50;53.80;;;;;;5051049;28;20021;-70
2021/04/16 03:27:38;;;;;;;10.43;3.60;;;8.50;53.90;;;;;;5050876;28;20078;-70
2021/04/16 03:30:12;;;;;;;10.45;3.60;;;8.40;53.80;;;;;;5049822;28;20396;-69
2021/04/16 03:32:37;;;;;;;9.77;3.20;;;8.50;54.20;;;;;;5050597;28;20079;-70
2021/04/16 03:35:04;;;;;;;9.95;3.40;;;8.40;54.00;;;;;;5047513;28;20030;-70
2021/04/16 03:37:30;;;;;;;8.85;3.58;;;8.40;54.00;;;;;;5047276;28;20075;-69
2021/04/16 03:39:55;;;;;;;8.68;3.47;;;8.40;54.20;;;;;;5050970;28;20029;-70
2021/04/16 03:42:21;;;;;;;10.85;3.60;;;8.40;54.30;;;;;;5050569;28;20021;-70
2021/04/16 03:44:47;;;;;;;9.48;3.75;;;8.40;54.50;;;;;;5050210;28;20028;-70
2021/04/16 03:47:12;;;;;;;11.48;3.38;;;8.40;54.70;;;;;;5054918;28;20029;-69
2021/04/16 03:49:38;;;;;;;9.68;3.38;;;8.40;54.50;;;;;;5055020;28;20040;-69
2021/04/16 03:52:04;;;;;;;10.82;3.70;;;8.40;54.40;;;;;;5054699;28;20036;-70
2021/04/16 03:54:30;;;;;;;9.40;3.47;;;8.40;54.40;;;;;;5054665;28;20090;-69
2021/04/16 03:56:56;;;;;;;7.45;3.30;;;8.40;54.40;;;;;;5054378;28;20091;-70
2021/04/16 03:59:24;;;;;;;7.80;3.30;;;8.30;54.60;;;;;;5054706;28;20032;-70
2021/04/16 04:01:50;;;;;;;10.82;3.58;;;8.30;54.60;;;;;;5054721;28;20029;-70
2021/04/16 04:04:16;;;;;;;9.77;3.45;;;8.30;54.60;;;;;;5054749;28;20079;-70
2021/04/16 04:06:42;;;;;;;11.93;3.75;;;8.30;54.50;;;;;;5054325;28;20029;-70
2021/04/16 04:09:08;;;;;;;11.15;3.55;;;8.30;54.50;;;;;;5054265;28;20082;-70
2021/04/16 04:11:34;;;;;;;10.77;3.70;;;8.30;54.80;;;;;;5054326;28;20078;-70
2021/04/16 04:14:00;;;;;;;9.55;3.58;;;8.30;54.80;;;;;;5054637;28;20132;-70
2021/04/16 04:16:27;;;;;;;10.25;3.85;;;8.30;55.00;;;;;;5054347;28;20128;-70
2021/04/16 04:18:53;;;;;;;9.55;3.70;;;8.30;54.90;;;;;;5036888;28;20072;-70
2021/04/16 04:21:19;;;;;;;13.10;4.20;;;8.30;55.00;;;;;;5042679;28;20518;-70
2021/04/16 04:23:45;;;;;;;9.55;3.90;;;8.20;55.20;;;;;;5054005;28;20025;-69
2021/04/16 04:26:10;;;;;;;10.55;3.85;;;8.10;55.40;;;;;;5052943;28;20147;-70
2021/04/16 04:28:36;;;;;;;11.00;4.00;;;8.20;55.40;;;;;;5054357;28;20025;-69
2021/04/16 04:31:02;;;;;;;11.55;4.15;;;8.10;55.40;;;;;;5054170;28;20436;-70
2021/04/16 04:33:28;;;;;;;12.55;4.47;;;8.10;55.40;;;;;;5053899;28;20060;-70
2021/04/16 04:35:53;;;;;;;9.57;3.92;;;8.10;55.40;;;;;;5047036;28;20082;-69
2021/04/16 04:38:20;;;;;;;12.43;4.30;;;8.10;55.40;;;;;;5054137;28;20040;-70
2021/04/16 04:40:45;;;;;;;9.45;3.72;;;8.10;55.60;;;;;;5053955;28;20047;-70
2021/04/16 04:43:11;;;;;;;10.30;4.00;;;8.10;55.60;;;;;;5052958;28;20025;-70
2021/04/16 04:45:37;;;;;;;10.52;4.20;;;8.10;55.50;;;;;;5054114;28;20151;-70
2021/04/16 04:48:03;;;;;;;10.43;4.00;;;8.10;55.60;;;;;;5053614;28;20032;-70
2021/04/16 04:50:29;;;;;;;9.40;3.97;;;8.10;55.40;;;;;;5053785;28;20459;-69
2021/04/16 04:52:56;;;;;;;11.20;4.15;;;8.00;55.40;;;;;;5053551;28;20180;-70
2021/04/16 04:55:32;;;;;;;10.43;4.13;;;8.00;55.50;;;;;;5053480;28;20087;-70
2021/04/16 04:57:58;;;;;;;10.38;4.15;;;8.00;55.70;;;;;;5052250;28;20033;-70
2021/04/16 05:00:25;;;;;;;9.68;4.25;;;8.00;55.70;;;;;;5053638;28;20026;-70
2021/04/16 05:02:51;;;;;;;12.07;4.53;;;8.00;55.80;;;;;;5052276;28;20096;-69
2021/04/16 05:05:19;;;;;;;9.63;4.53;;;8.00;56.00;;;;;;5053614;28;20025;-69
2021/04/16 05:07:45;;;;;;;9.93;4.18;;;7.90;56.00;;;;;;5053534;28;20037;-70
2021/04/16 05:10:11;;;;;;;10.30;4.63;;;7.90;55.90;;;;;;5053428;28;20043;-70
2021/04/16 05:12:37;;;;;;;10.52;4.78;;;7.90;55.90;;;;;;5053466;28;20036;-70
2021/04/16 05:15:04;;;;;;;11.10;4.68;;;7.90;56.00;;;;;;5052847;28;20017;-69
2021/04/16 05:17:30;;;;;;;10.43;5.00;;;7.80;56.30;;;;;;5033374;28;20072;-70
2021/04/16 05:19:55;;;;;;;14.02;6.25;;;7.80;56.70;;;;;;5033744;28;20457;-69
2021/04/16 05:22:21;;;;;;;15.00;6.43;;;7.80;56.80;;;;;;5033633;28;20022;-69
2021/04/16 05:24:47;;;;;;;11.90;5.72;;;7.80;57.50;;;;;;5031940;28;20029;-69
2021/04/16 05:27:14;;;;;;;13.10;5.53;;;7.90;57.40;;;;;;5033813;28;20076;-70
2021/04/16 05:29:40;;;;;;;11.38;5.22;;;7.90;57.00;;;;;;5034815;28;20034;-70
2021/04/16 05:32:07;;;;;;;10.68;5.10;;;8.00;57.00;;;;;;5035097;28;20037;-69
2021/04/16 05:34:33;;;;;;;10.80;5.40;;;8.00;56.70;;;;;;5037443;28;20036;-70
2021/04/16 05:36:59;;;;;;;11.77;5.80;;;8.00;56.20;;;;;;5036098;28;20029;-69
2021/04/16 05:39:25;;;;;;;12.05;5.80;;;8.10;56.30;;;;;;5038879;28;20542;-70
2021/04/16 05:41:51;;;;;;;11.73;5.63;;;8.00;56.30;;;;;;5040399;28;20106;-70
2021/04/16 05:44:17;;;;;;;13.70;5.60;;;8.00;56.40;;;;;;5041995;28;20065;-69
2021/04/16 05:46:43;;;;;;;10.90;5.47;;;7.90;56.70;;;;;;5037122;28;20056;-70
2021/04/16 05:49:08;;;;;;;14.15;5.75;;;7.90;56.70;;;;;;5036498;28;20486;-70
2021/04/16 05:51:35;;;;;;;12.55;6.28;;;7.90;56.70;;;;;;5038555;28;20104;-70
2021/04/16 05:54:01;;;;;;;12.82;5.55;;;8.00;56.50;;;;;;5041291;28;20017;-69
2021/04/16 05:56:27;;;;;;;13.02;5.93;;;8.00;56.20;;;;;;5037517;28;20104;-69
2021/04/16 05:58:52;;;;;;;13.48;6.32;;;8.00;56.60;;;;;;5040667;28;20022;-69
2021/04/16 06:01:18;;;;;;;13.07;5.97;;;8.00;56.60;;;;;;5034178;28;20060;-70
2021/04/16 06:03:45;;;;;;;12.77;6.18;;;8.10;56.60;;;;;;5033685;28;20107;-70
2021/04/16 06:06:11;;;;;;;13.82;5.90;;;8.10;56.60;;;;;;5035157;28;20017;-69
2021/04/16 06:08:37;;;;;;;13.48;6.70;;;8.20;56.10;;;;;;5030543;28;20056;-70
2021/04/16 06:11:03;;;;;;;12.25;6.40;;;8.20;56.00;;;;;;5034718;28;20057;-70
2021/04/16 06:13:29;;;;;;;9.98;5.63;;;8.30;56.10;;;;;;5031919;28;20114;-71
2021/04/16 06:15:56;;;;;;;12.48;6.53;;;8.30;55.80;;;;;;5030604;28;20116;-71
2021/04/16 06:18:23;;;;;;;13.43;6.45;;;8.40;55.90;;;;;;5043091;28;20031;-71
2021/04/16 06:20:49;;;;;;;13.27;6.60;;;8.50;56.00;;;;;;5024653;28;20046;-69
2021/04/16 06:23:16;;;;;;;12.10;6.50;;;8.60;55.80;;;;;;5012158;28;20076;-70
2021/04/16 06:25:41;;;;;;;16.27;6.68;;;8.70;55.50;;;;;;5021384;28;20033;-70
2021/04/16 06:28:08;;;;;;;13.13;7.05;;;8.80;55.20;;;;;;5023348;28;20220;-70
2021/04/16 06:30:34;;;;;;;15.57;7.07;;;8.80;55.40;;;;;;5031058;28;20100;-70
2021/04/16 06:33:07;;;;;;;13.80;7.20;;;8.80;55.30;;;;;;5031285;28;20104;-70
2021/04/16 06:35:35;;;;;;;12.65;7.05;;;8.90;55.20;;;;;;5023010;28;20037;-70
2021/04/16 06:38:01;;;;;;;13.05;6.85;;;9.00;55.00;;;;;;5029586;28;20018;-70
2021/04/16 06:40:28;;;;;;;14.02;6.88;;;9.10;54.60;;;;;;5017637;28;20034;-70
2021/04/16 06:42:54;;;;;;;16.48;7.30;;;9.20;54.60;;;;;;5026881;28;20364;-71
2021/04/16 06:45:27;;;;;;;14.10;7.90;;;9.30;54.70;;;;;;5011036;28;20433;-73
2021/04/16 06:48:02;;;;;;;13.43;7.63;;;9.50;55.70;;;;;;5014172;28;20029;-72
2021/04/16 06:50:33;;;;;;;13.63;7.60;;;9.70;54.40;;;;;;5019455;28;20052;-73
2021/04/16 06:53:17;;;;;;;15.93;8.23;;;9.90;54.00;;;;;;5011148;28;20524;-72
2021/04/16 06:56:04;;;;;;;14.27;8.25;;;10.20;53.30;;;;;;5014036;28;20100;-72
2021/04/16 06:58:55;;;;;;;17.08;8.25;;;10.50;52.40;;;;;;5017518;28;20040;-72
2021/04/16 07:01:32;;;;;;;14.50;8.18;;;11.10;50.70;;;;;;5048039;28;20044;-72
2021/04/16 07:04:18;;;;;;;14.73;8.27;;;11.70;48.90;;;;;;5045036;28;20025;-72
2021/04/16 07:06:44;;;;;;;12.73;8.02;;;12.60;46.70;;;;;;5037604;28;20038;-72
2021/04/16 07:09:20;;;;;;;14.93;7.88;;;13.70;44.30;;;;;;5020327;28;20245;-73
2021/04/16 07:12:13;;;;;;;13.13;7.28;;;15.20;40.00;;;;;;5046475;28;20547;-73
2021/04/16 07:14:46;;;;;;;15.57;8.13;;;16.10;37.60;;;;;;5029086;28;20496;-72
2021/04/16 07:17:19;;;;;;;12.95;7.90;;;16.70;36.20;;;;;;5046622;28;20045;-74
2021/04/16 07:19:45;;;;;;;12.75;7.80;;;17.40;35.00;;;;;;5047247;28;20171;-73
2021/04/16 07:22:31;;;;;;;12.07;7.22;;;18.00;33.50;;;;;;5048464;28;20524;-73
2021/04/16 07:24:58;;;;;;;13.23;6.95;;;18.80;32.10;;;;;;5040032;28;20033;-70
2021/04/16 07:27:41;;;;;;;11.10;7.05;;;19.50;30.70;;;;;;5048589;28;20465;-71
2021/04/16 07:30:08;;;;;;;12.27;7.43;;;20.10;29.80;;;;;;5047883;28;20211;-71
2021/04/16 07:32:42;;;;;;;11.07;6.80;;;20.60;28.90;;;;;;5038633;28;20047;-71
2021/04/16 07:35:17;;;;;;;12.52;7.50;;;21.10;28.30;;;;;;5046555;28;20052;-71
2021/04/16 07:37:47;;;;;;;11.95;7.40;;;21.70;27.40;;;;;;5027126;28;20046;-71
2021/04/16 07:40:22;;;;;;;12.38;7.55;;;22.10;26.90;;;;;;4989815;28;20029;-71
2021/04/16 07:42:52;;;;;;;12.70;6.63;;;22.50;26.30;;;;;;5005707;28;20076;-71
2021/04/16 07:45:24;;;;;;;12.27;6.80;;;23.20;26.20;;;;;;4997980;28;20019;-71
2021/04/16 07:47:53;;;;;;;10.55;7.00;;;23.70;25.00;;;;;;4995904;28;20040;-71
2021/04/16 07:50:40;;;;;;;12.20;6.30;;;24.00;24.40;;;;;;5007331;28;20104;-71
2021/04/16 07:53:30;;;;;;;12.45;6.40;;;24.50;24.30;;;;;;5006105;28;20445;-71
2021/04/16 07:56:16;;;;;;;11.50;5.88;;;25.00;23.40;;;;;;4992520;28;20034;-72
2021/04/16 07:58:43;;;;;;;11.38;6.40;;;25.40;22.80;;;;;;4999293;28;20059;-71
2021/04/16 08:01:14;;;;;;;10.65;5.80;;;25.20;22.30;;;;;;4996243;28;20031;-71
2021/04/16 08:03:49;;;;;;;9.82;5.28;;;25.10;22.50;;;;;;5007306;28;20554;-68
2021/04/16 08:06:31;;;;;;;10.65;6.22;;;25.50;22.70;;;;;;4994243;28;20184;-71
2021/04/16 08:08:58;;;;;;;9.18;5.40;;;25.70;21.50;;;;;;5004729;28;20030;-71
2021/04/16 08:11:30;;;;;;;9.27;5.22;;;25.60;22.10;;;;;;5004998;28;20550;-70
2021/04/16 08:14:12;;;;;;;8.77;4.72;;;26.20;22.00;;;;;;5001488;28;20033;-70
2021/04/16 08:16:40;;;;;;;9.80;5.00;;;26.90;21.80;;;;;;5022348;28;20175;-70
2021/04/16 08:19:06;;;;;;;9.38;5.32;;;27.60;21.20;;;;;;5017470;28;20075;-71
2021/04/16 08:21:36;;;;;;;8.88;4.85;;;28.10;20.70;;;;;;5023758;28;20033;-71
2021/04/16 08:24:14;;;;;;;9.27;5.03;;;28.60;20.30;;;;;;5019449;28;20068;-71
2021/04/16 08:26:43;;;;;;;7.93;4.18;;;29.10;19.80;;;;;;5028729;28;20053;-71
2021/04/16 08:29:26;;;;;;;9.10;4.80;;;29.70;19.50;;;;;;5015152;28;20112;-75
2021/04/16 08:31:52;;;;;;;9.20;4.97;;;30.20;18.80;;;;;;5014846;28;20045;-74
2021/04/16 08:34:23;;;;;;;7.95;4.57;;;30.40;18.10;;;;;;5016481;28;20030;-74
2021/04/16 08:36:49;;;;;;;9.52;4.30;;;30.60;18.10;;;;;;5022553;28;20072;-73
2021/04/16 08:39:27;;;;;;;8.32;4.90;;;30.90;18.00;;;;;;5021852;28;20037;-75
2021/04/16 08:42:06;;;;;;;7.88;4.50;;;31.10;17.80;;;;;;5029110;28;20141;-75
2021/04/16 08:44:33;;;;;;;;;;;31.40;17.70;;;;;;5024845;28;20076;-75
2021/04/16 08:46:59;;;;;;;8.48;4.97;;;31.70;17.40;;;;;;5023863;28;19905;-75
2021/04/16 08:49:35;;;;;;;8.30;4.30;;;32.00;16.90;;;;;;5024423;28;20397;-76
2021/04/16 08:52:15;;;;;;;7.75;4.05;;;32.40;16.70;;;;;;5015880;28;20507;-74
2021/04/16 08:54:43;;;;;;;8.20;4.03;;;32.80;16.40;;;;;;5026519;28;20025;-75
2021/04/16 08:57:25;;;;;;;8.88;4.00;;;33.00;16.00;;;;;;5017627;28;20046;-75
2021/04/16 09:00:27;;;;;;;7.50;3.70;;;33.10;16.00;;;;;;5017295;28;20052;-75
2021/04/16 09:02:55;;;;;;;8.63;4.07;;;33.40;16.20;;;;;;5016787;28;20049;-75
2021/04/16 09:05:34;;;;;;;7.03;3.30;;;33.60;14.80;;;;;;5016081;28;20094;-74
2021/04/16 09:08:08;;;;;;;;;;;33.40;15.60;;;;;;5029556;28;20026;-74
2021/04/16 09:10:34;;;;;;;7.63;3.72;;;33.70;15.00;;;;;;5014717;28;19968;-74
2021/04/16 09:13:02;;;;;;;7.60;3.40;;;33.70;14.40;;;;;;5016004;28;20451;-75
2021/04/16 09:15:34;;;;;;;8.70;3.90;;;34.00;14.80;;;;;;5016667;28;20056;-74
2021/04/16 09:17:59;;;;;;;7.45;3.60;;;34.10;14.20;;;;;;5013073;28;20076;-75
2021/04/16 09:20:26;;;;;;;6.63;3.47;;;33.70;14.70;;;;;;5018578;28;20021;-75
2021/04/16 09:23:02;;;;;;;6.40;3.50;;;33.70;14.40;;;;;;5021381;28;20071;-75
2021/04/16 09:25:49;;;;;;;6.90;3.80;;;33.40;14.40;;;;;;5027621;28;20018;-75
2021/04/16 09:28:24;;;;;;;7.10;3.30;;;32.90;14.80;;;;;;5031161;28;20041;-75
2021/04/16 09:31:21;;;;;;;7.35;3.60;;;32.80;15.20;;;;;;5030863;28;20049;-75
2021/04/16 09:33:48;;;;;;;6.97;3.40;;;32.80;15.10;;;;;;5030547;28;20067;-74
2021/04/16 09:36:39;;;;;;;7.38;4.03;;;32.50;15.10;;;;;;5021547;28;20056;-75
2021/04/16 09:39:12;;;;;;;7.30;3.50;;;32.10;14.80;;;;;;4986739;28;20042;-73
2021/04/16 09:41:40;;;;;;;7.00;3.72;;;31.70;15.60;;;;;;4994658;28;20053;-68
2021/04/16 09:44:42;;;;;;;6.68;3.80;;;31.00;15.50;;;;;;4980429;28;20399;-67
2021/04/16 09:47:08;;;;;;;7.53;3.83;;;30.40;16.10;;;;;;4979361;28;20100;-68
2021/04/16 09:49:40;;;;;;;7.45;4.10;;;30.00;16.40;;;;;;4990706;28;20518;-68
2021/04/16 09:52:46;;;;;;;9.20;4.55;;;29.70;16.40;;;;;;4974191;28;20034;-68
2021/04/16 09:55:44;;;;;;;9.75;4.80;;;28.90;17.00;;;;;;4927450;29;20169;-67
2021/04/16 09:58:12;;;;;;;8.27;4.60;;;28.10;18.00;;;;;;4927856;29;20052;-66
2021/04/16 10:00:58;;;;;;;8.95;5.60;;;27.20;18.30;;;;;;4908984;29;20700;-67
2021/04/16 10:03:35;;;;;;;8.98;5.20;;;26.10;18.40;;;;;;4931827;29;20050;-67
2021/04/16 10:06:15;;;;;;;10.57;5.80;;;24.70;19.90;;;;;;4930861;29;20559;-67
2021/04/16 10:08:43;;;;;;;10.70;6.80;;;23.90;21.20;;;;;;4928836;29;20179;-68
2021/04/16 10:11:10;;;;;;;25.00;7.65;;;23.30;21.80;;;;;;4933223;29;20106;-63
2021/04/16 10:13:41;;;;;;;8.45;4.35;;;24.40;22.50;;;;;;4920114;29;20035;-64
2021/04/16 10:16:24;;;;;;;6.55;3.20;;;30.50;16.20;;;;;;4937034;29;20071;-64
2021/04/16 10:18:50;;;;;;;7.22;3.40;;;36.20;12.80;;;;;;4951896;29;20039;-64
2021/04/16 10:21:16;;;;;;;12.00;6.50;;;39.10;10.70;;;;;;4951712;28;20027;-70
2021/04/16 10:23:51;;;;;;;10.23;7.78;;;33.30;14.30;;;;;;4951926;29;20066;-72
2021/04/16 12:40:57;;;;;;;9.85;5.40;;;16.70;26.00;;;;;;5020090;28;20061;-75
2021/04/16 12:43:23;;;;;;;9.70;6.60;;;16.80;27.00;;;;;;5028265;28;20049;-75
2021/04/16 12:45:53;;;;;;;11.48;6.70;;;17.00;25.90;;;;;;5023253;28;20040;-75
2021/04/16 12:48:20;;;;;;;13.15;6.70;;;17.10;25.80;;;;;;5018088;28;20501;-76
2021/04/16 12:50:45;;;;;;;12.25;7.13;;;17.20;26.70;;;;;;5017224;28;20042;-76
2021/04/16 12:53:11;;;;;;;13.32;7.93;;;17.30;26.20;;;;;;5019339;28;20021;-76
2021/04/16 12:55:37;;;;;;;11.50;7.80;;;17.30;25.90;;;;;;5011772;28;20168;-76
2021/04/16 12:58:06;;;;;;;12.48;8.00;;;17.20;25.80;;;;;;5017235;28;20032;-77
2021/04/16 13:00:37;;;;;;;12.38;8.00;;;17.10;26.20;;;;;;5013909;28;20036;-76
2021/04/16 13:03:26;;;;;;;11.00;7.32;;;17.00;26.60;;;;;;5027932;28;20014;-76
2021/04/16 13:05:52;;;;;;;13.75;7.75;;;17.20;26.80;;;;;;5021359;28;20038;-76
2021/04/16 13:08:18;;;;;;;11.48;7.70;;;17.30;26.70;;;;;;5020234;28;20044;-75
2021/04/16 13:10:44;;;;;;;11.38;7.10;;;17.20;25.60;;;;;;5024500;28;20211;-75
2021/04/16 13:13:10;;;;;;;11.85;7.40;;;17.10;25.70;;;;;;5022830;28;20029;-75
2021/04/16 13:15:36;;;;;;;11.40;7.10;;;17.20;26.10;;;;;;5017098;28;20065;-76
2021/04/16 13:18:10;;;;;;;11.68;6.90;;;17.20;25.30;;;;;;5023113;28;20065;-76
2021/04/16 13:20:36;;;;;;;12.07;7.85;;;17.10;25.40;;;;;;5010748;28;20049;-75
2021/04/16 13:23:02;;;;;;;10.25;6.78;;;17.00;24.90;;;;;;5013945;28;20403;-75
2021/04/16 13:25:30;;;;;;;10.75;7.78;;;16.90;25.10;;;;;;5020796;28;20033;-75
2021/04/16 13:27:56;;;;;;;12.30;8.10;;;16.80;25.70;;;;;;5013671;28;20113;-75
2021/04/16 13:30:28;;;;;;;12.75;7.38;;;16.70;25.50;;;;;;5017018;28;20034;-75
2021/04/16 13:32:58;;;;;;;10.98;7.75;;;16.60;26.20;;;;;;5015616;28;20213;-75
2021/04/16 13:35:28;;;;;;;12.63;7.53;;;16.60;25.70;;;;;;5024492;28;20037;-75
2021/04/16 13:37:54;;;;;;;12.32;8.80;;;16.50;26.30;;;;;;5013373;28;20303;-75
2021/04/16 13:40:20;;;;;;;12.63;8.85;;;16.60;25.70;;;;;;5018729;28;20036;-75
2021/04/16 13:42:46;;;;;;;11.35;8.38;;;16.30;25.50;;;;;;5021882;28;20032;-75
2021/04/16 13:45:12;;;;;;;12.45;8.05;;;16.10;26.30;;;;;;5025962;28;20026;-75
2021/04/16 13:47:42;;;;;;;14.82;9.20;;;16.10;27.50;;;;;;5021388;28;20383;-75
2021/04/16 13:50:10;;;;;;;13.95;9.48;;;16.10;27.10;;;;;;5024921;28;20501;-76
2021/04/16 13:52:36;;;;;;;12.70;8.68;;;16.20;27.10;;;;;;5027800;28;20036;-76
2021/04/16 13:55:03;;;;;;;11.15;7.53;;;16.30;26.90;;;;;;5028428;28;20033;-76
2021/04/16 13:57:28;;;;;;;11.13;7.38;;;16.40;27.20;;;;;;5014807;28;20116;-76
2021/04/16 13:59:54;;;;;;;12.35;7.78;;;16.60;26.60;;;;;;5017271;28;20536;-76
2021/04/16 14:02:32;;;;;;;13.52;7.03;;;16.50;26.10;;;;;;5025225;28;20022;-76
2021/04/16 14:04:58;;;;;;;11.23;8.27;;;16.50;26.90;;;;;;5026741;28;20025;-76
2021/04/16 14:07:24;;;;;;;11.32;7.82;;;16.60;26.60;;;;;;5019540;28;20585;-76
2021/04/16 14:09:49;;;;;;;12.57;7.57;;;16.60;26.60;;;;;;5011134;28;20064;-76
2021/04/16 14:12:15;;;;;;;11.70;8.02;;;16.50;26.70;;;;;;5014853;28;20083;-74
2021/04/16 14:14:44;;;;;;;11.18;7.80;;;16.60;26.30;;;;;;5012610;28;20122;-75
2021/04/16 14:17:17;;;;;;;12.02;7.60;;;16.50;27.10;;;;;;5025334;28;20052;-75
2021/04/16 14:19:48;;;;;;;12.07;7.53;;;16.50;27.30;;;;;;5025664;28;20048;-75
2021/04/16 14:22:26;;;;;;;11.57;7.90;;;16.40;26.80;;;;;;5008160;28;20596;-76
2021/04/16 14:24:51;;;;;;;10.60;7.78;;;16.30;27.00;;;;;;5017597;28;20064;-75
2021/04/16 14:27:17;;;;;;;12.35;7.75;;;16.10;26.70;;;;;;5013919;28;20540;-75
2021/04/16 14:29:43;;;;;;;11.40;7.47;;;16.10;27.40;;;;;;5018275;28;20045;-75
2021/04/16 14:32:10;;;;;;;12.98;7.75;;;16.20;27.60;;;;;;5011987;28;20398;-76
2021/04/16 14:34:38;;;;;;;11.32;8.32;;;16.30;26.80;;;;;;5011423;28;20065;-76
2021/04/16 14:37:04;;;;;;;12.02;7.93;;;16.30;26.60;;;;;;5008671;28;20033;-76
2021/04/16 14:39:30;;;;;;;11.68;7.30;;;16.20;26.70;;;;;;5009142;28;20025;-76
2021/04/16 14:41:57;;;;;;;14.38;7.60;;;16.20;27.10;;;;;;5012381;28;20057;-76
2021/04/16 14:44:24;;;;;;;13.02;7.80;;;16.30;27.30;;;;;;5023318;28;20033;-76
2021/04/16 14:46:51;;;;;;;11.77;7.97;;;16.30;26.80;;;;;;5023519;28;20034;-75
2021/04/16 14:49:20;;;;;;;13.35;8.07;;;16.00;26.60;;;;;;5021876;28;20096;-76
2021/04/16 14:51:46;;;;;;;12.02;7.32;;;15.70;26.70;;;;;;5024412;28;20053;-76
2021/04/16 14:54:30;;;;;;;10.63;7.43;;;15.60;27.40;;;;;;5021720;28;20352;-76
2021/04/16 14:56:58;;;;;;;11.85;7.22;;;15.80;26.80;;;;;;5015835;28;20095;-71
2021/04/16 14:59:40;;;;;;;12.15;8.55;;;15.70;26.90;;;;;;5012380;28;20037;-71
2021/04/16 15:02:06;;;;;;;10.82;7.57;;;15.60;26.80;;;;;;5011585;28;20478;-71
2021/04/16 15:04:32;;;;;;;11.10;7.53;;;15.60;27.50;;;;;;5014396;28;20033;-71
2021/04/16 15:07:01;;;;;;;14.88;8.25;;;15.60;27.00;;;;;;5016821;28;20444;-71
2021/04/16 15:09:54;;;;;;;11.73;7.85;;;15.40;27.30;;;;;;5009636;28;20045;-71
2021/04/16 15:12:26;;;;;;;12.88;8.18;;;15.20;27.60;;;;;;5011656;28;20058;-71
2021/04/16 15:14:56;;;;;;;13.50;8.27;;;15.20;27.90;;;;;;5019290;28;20037;-71